Time;durP1;ratioP1;P1;durP2;ratioP2;P2;SDS_P1;SDS_P2;PMS_P1;PMS_P2;Temp;Humidity;BMP_temperature;BMP_pressure;BME280_temperature;BME280_humidity;BME280_pressure;Samples;Min_cycle;Max_cycle;Signal;HPM_P1;HPM_P2
2022/07/23 00:01:00;;;;;;;6.45;3.08;;;;;;;17.00;98.66;101673.88;4731434;30;20162;-77
2022/07/23 00:03:37;;;;;;;11.63;3.50;;;;;;;16.91;98.58;101670.72;4720373;30;20044;-78
2022/07/23 00:06:21;;;;;;;7.32;3.10;;;;;;;16.96;99.90;101672.72;4734132;30;20040;-77
2022/07/23 00:09:30;;;;;;;;;;;;;;;;;;;;;
2022/07/23 00:12:42;;;;;;;6.00;3.38;;;;;;;16.94;100.00;101675.69;4724034;30;20137;-78
2022/07/23 00:15:33;;;;;;;4.47;3.30;;;;;;;16.97;100.00;101685.31;4728955;30;20127;-77
2022/07/23 00:21:17;;;;;;;10.98;4.05;;;;;;;16.81;100.00;101668.59;4716008;30;20076;-77
2022/07/23 00:23:58;;;;;;;7.55;3.78;;;;;;;16.79;100.00;101665.31;4717571;30;20057;-77
2022/07/23 00:26:34;;;;;;;7.28;3.38;;;;;;;16.84;100.00;101672.75;4717804;30;20393;-77
2022/07/23 00:29:02;;;;;;;6.50;3.55;;;;;;;16.84;100.00;101670.84;4717591;30;20441;-77
2022/07/23 00:31:35;;;;;;;7.68;3.50;;;;;;;16.78;100.00;101671.84;4720304;30;20401;-77
2022/07/23 00:34:07;;;;;;;4.55;3.58;;;;;;;16.70;100.00;101676.88;4720785;30;20037;-76
2022/07/23 00:36:39;;;;;;;8.50;3.95;;;;;;;16.68;100.00;101677.13;4721105;30;20369;-76
2022/07/23 00:39:04;;;;;;;5.00;3.70;;;;;;;16.61;100.00;101671.00;4720190;30;20025;-77
2022/07/23 00:41:30;;;;;;;13.25;4.22;;;;;;;16.60;100.00;101663.88;4720737;30;20039;-77
2022/07/23 00:43:55;;;;;;;8.30;4.35;;;;;;;16.53;100.00;101664.03;4720600;30;20028;-75
2022/07/23 00:46:22;;;;;;;7.97;4.55;;;;;;;16.59;100.00;101656.72;4717349;30;20025;-76
2022/07/23 00:48:48;;;;;;;5.22;4.57;;;;;;;16.50;100.00;101663.66;4718743;30;20118;-77
2022/07/23 00:51:16;;;;;;;8.02;4.45;;;;;;;16.43;100.00;101670.13;4703440;30;20033;-75
2022/07/23 00:53:42;;;;;;;6.18;4.88;;;;;;;16.42;100.00;101673.91;4703332;30;20048;-76
2022/07/23 00:56:08;;;;;;;7.70;4.95;;;;;;;16.33;100.00;101663.63;4719118;30;20043;-77
2022/07/23 00:58:35;;;;;;;9.07;5.15;;;;;;;16.32;100.00;101664.69;4717565;30;20496;-76
2022/07/23 01:01:00;;;;;;;7.43;5.10;;;;;;;16.38;100.00;101669.19;4712212;30;20429;-76
2022/07/23 01:03:26;;;;;;;10.07;4.70;;;;;;;16.35;100.00;101669.66;4736527;30;20446;-76
2022/07/23 01:05:52;;;;;;;8.82;4.57;;;;;;;16.34;100.00;101671.59;4720382;30;20028;-77
2022/07/23 01:08:17;;;;;;;5.78;4.20;;;;;;;16.23;100.00;101665.09;4736075;30;20438;-76
2022/07/23 01:10:43;;;;;;;7.82;4.60;;;;;;;16.16;100.00;101658.13;4721448;30;20111;-76
2022/07/23 01:13:09;;;;;;;5.55;4.50;;;;;;;16.11;100.00;101662.41;4703094;30;20390;-76
2022/07/23 01:15:36;;;;;;;7.47;4.53;;;;;;;16.24;100.00;101661.28;4702997;30;20487;-76
2022/07/23 01:18:04;;;;;;;5.15;4.40;;;;;;;16.15;100.00;101659.19;4725039;30;20106;-77
2022/07/23 01:20:30;;;;;;;6.60;4.57;;;;;;;16.15;100.00;101657.28;4736146;30;20064;-76
2022/07/23 01:22:55;;;;;;;12.02;6.03;;;;;;;16.04;100.00;101650.78;4735931;30;20052;-77
2022/07/23 01:25:21;;;;;;;9.30;4.85;;;;;;;16.02;100.00;101657.53;4735829;30;20521;-77
2022/07/23 01:27:47;;;;;;;6.18;4.53;;;;;;;15.98;100.00;101656.38;4735774;30;20036;-77
2022/07/23 01:30:13;;;;;;;6.60;4.40;;;;;;;15.94;100.00;101661.50;4714193;30;20064;-76
2022/07/23 01:32:38;;;;;;;5.90;4.20;;;;;;;15.98;100.00;101657.22;4705146;30;20056;-77
2022/07/23 01:35:05;;;;;;;7.60;4.82;;;;;;;15.99;100.00;101660.75;4735695;30;20028;-76
2022/07/23 01:37:30;;;;;;;6.40;4.40;;;;;;;15.89;100.00;101654.03;4735549;30;20057;-77
2022/07/23 01:39:55;;;;;;;7.00;4.47;;;;;;;15.89;100.00;101647.75;4735374;30;20504;-76
2022/07/23 01:42:21;;;;;;;7.80;4.72;;;;;;;15.82;100.00;101645.16;4735015;30;20078;-76
2022/07/23 01:44:46;;;;;;;9.68;4.68;;;;;;;15.75;100.00;101655.34;4747381;30;20072;-76
2022/07/23 01:47:11;;;;;;;6.28;4.47;;;;;;;15.67;100.00;101647.50;4735465;30;20373;-77
2022/07/23 01:49:37;;;;;;;7.30;4.28;;;;;;;15.69;100.00;101653.56;4719770;30;20056;-76
2022/07/23 01:52:06;;;;;;;5.18;4.43;;;;;;;15.67;100.00;101640.16;4748807;30;20040;-77
2022/07/23 01:54:33;;;;;;;15.73;5.10;;;;;;;15.70;100.00;101645.16;4719785;30;20032;-76
2022/07/23 01:57:00;;;;;;;8.60;4.78;;;;;;;15.74;100.00;101650.94;4735350;30;20033;-76
2022/07/23 01:59:26;;;;;;;12.38;6.30;;;;;;;15.65;100.00;101641.47;4735068;30;20052;-77
2022/07/23 02:01:52;;;;;;;10.98;7.03;;;;;;;15.64;100.00;101646.13;4732168;30;20114;-76
2022/07/23 02:04:18;;;;;;;10.15;6.70;;;;;;;15.61;100.00;101646.59;4735476;30;20071;-76
2022/07/23 02:06:43;;;;;;;7.25;5.53;;;;;;;15.56;100.00;101636.38;4735362;30;20489;-76
2022/07/23 02:09:09;;;;;;;8.80;5.05;;;;;;;15.53;100.00;101636.03;4734874;30;20028;-77
2022/07/23 02:11:34;;;;;;;10.23;5.45;;;;;;;15.51;100.00;101643.63;4735204;30;20036;-76
2022/07/23 02:14:00;;;;;;;7.10;4.95;;;;;;;15.59;100.00;101643.25;4718432;30;20045;-76
2022/07/23 02:16:25;;;;;;;8.35;4.78;;;;;;;15.57;100.00;101645.41;4735249;30;20032;-76
2022/07/23 02:18:51;;;;;;;8.57;5.32;;;;;;;15.45;100.00;101629.03;4719234;30;20502;-76
2022/07/23 02:21:16;;;;;;;7.60;5.10;;;;;;;15.49;100.00;101637.56;4719140;30;20057;-77
2022/07/23 02:23:41;;;;;;;9.85;5.30;;;;;;;15.40;100.00;101634.41;4733867;30;20190;-77
2022/07/23 02:26:07;;;;;;;6.35;4.93;;;;;;;15.46;100.00;101632.59;4735109;30;20518;-77
2022/07/23 02:28:32;;;;;;;7.97;4.93;;;;;;;15.42;100.00;101637.69;4718773;30;20528;-76
2022/07/23 02:30:57;;;;;;;9.25;4.60;;;;;;;15.41;100.00;101636.03;4715848;30;20123;-77
2022/07/23 02:33:22;;;;;;;8.38;5.00;;;;;;;15.44;100.00;101632.81;4717555;30;20036;-77
2022/07/23 02:35:48;;;;;;;8.32;4.80;;;;;;;15.42;100.00;101632.25;4717316;30;20057;-77
2022/07/23 02:38:13;;;;;;;9.52;5.32;;;;;;;15.48;100.00;101631.28;4701734;30;20032;-76
2022/07/23 02:40:39;;;;;;;8.60;5.28;;;;;;;15.42;100.00;101633.06;4717416;30;20546;-76
2022/07/23 02:43:04;;;;;;;9.13;5.50;;;;;;;15.36;100.00;101631.28;4702770;30;20036;-77
2022/07/23 02:45:29;;;;;;;10.55;5.07;;;;;;;15.31;100.00;101642.09;4735086;30;20036;-77
2022/07/23 02:47:55;;;;;;;10.65;5.30;;;;;;;15.25;100.00;101640.31;4734248;30;20171;-77
2022/07/23 02:50:20;;;;;;;9.43;5.50;;;;;;;15.22;100.00;101643.53;4734741;30;20047;-77
2022/07/23 02:52:45;;;;;;;8.00;5.50;;;;;;;15.22;100.00;101648.97;4734641;30;20033;-76
2022/07/23 02:55:11;;;;;;;11.15;5.85;;;;;;;15.15;100.00;101648.25;4734469;30;20490;-76
2022/07/23 02:57:36;;;;;;;8.07;5.47;;;;;;;15.16;100.00;101653.47;4734117;30;20029;-77
2022/07/23 03:00:04;;;;;;;8.32;6.00;;;;;;;15.01;100.00;101651.19;4734426;30;20066;-76
2022/07/23 03:02:29;;;;;;;12.73;6.10;;;;;;;15.02;100.00;101655.59;4731202;30;20052;-77
2022/07/23 03:04:55;;;;;;;8.85;6.22;;;;;;;14.93;100.00;101650.72;4718163;30;20091;-76
2022/07/23 03:07:20;;;;;;;10.35;6.53;;;;;;;14.90;100.00;101646.56;4734517;30;20076;-76
2022/07/23 03:09:45;;;;;;;8.40;6.53;;;;;;;14.83;100.00;101652.13;4718650;30;20033;-76
2022/07/23 03:12:11;;;;;;;10.45;6.20;;;;;;;14.87;100.00;101647.03;4718467;30;20044;-76
2022/07/23 03:14:36;;;;;;;10.63;6.68;;;;;;;14.85;100.00;101652.69;4732282;30;20036;-76
2022/07/23 03:17:01;;;;;;;9.50;6.65;;;;;;;14.83;100.00;101656.75;4734301;30;20032;-78
2022/07/23 03:19:27;;;;;;;8.32;6.00;;;;;;;14.77;100.00;101652.22;4718595;30;20025;-76
2022/07/23 03:21:52;;;;;;;8.27;6.20;;;;;;;14.74;100.00;101652.69;4733921;30;20559;-76
2022/07/23 03:24:17;;;;;;;10.80;6.70;;;;;;;14.76;100.00;101648.66;4718633;30;20075;-77
2022/07/23 03:26:43;;;;;;;11.45;6.93;;;;;;;14.74;100.00;101660.88;4734352;30;20031;-76
2022/07/23 03:29:09;;;;;;;10.63;6.72;;;;;;;14.69;100.00;101658.84;4734178;30;20036;-76
2022/07/23 03:31:35;;;;;;;9.45;6.22;;;;;;;14.74;100.00;101658.16;4733696;30;20492;-77
2022/07/23 03:34:00;;;;;;;8.82;6.68;;;;;;;14.69;100.00;101656.94;4734165;30;20044;-76
2022/07/23 03:36:26;;;;;;;11.07;6.85;;;;;;;14.70;100.00;101664.06;4734250;30;20033;-76
2022/07/23 03:38:51;;;;;;;8.75;6.75;;;;;;;14.69;100.00;101656.13;4734021;30;20033;-77
2022/07/23 03:41:18;;;;;;;11.52;7.05;;;;;;;14.75;100.00;101670.69;4718087;30;20033;-77
2022/07/23 03:43:43;;;;;;;11.68;7.43;;;;;;;14.75;100.00;101654.34;4733839;30;20029;-77
2022/07/23 03:46:09;;;;;;;9.25;7.28;;;;;;;14.75;100.00;101657.06;4717594;30;20032;-76
2022/07/23 03:48:34;;;;;;;11.43;7.43;;;;;;;14.77;100.00;101658.50;4734142;30;20090;-76
2022/07/23 03:51:00;;;;;;;12.48;7.50;;;;;;;14.70;100.00;101655.91;4733742;30;20036;-76
2022/07/23 03:53:25;;;;;;;10.15;7.10;;;;;;;14.74;100.00;101658.97;4734401;30;20484;-77
2022/07/23 03:55:50;;;;;;;11.35;6.88;;;;;;;14.70;100.00;101658.63;4734114;30;20036;-77
2022/07/23 03:58:16;;;;;;;10.65;6.55;;;;;;;14.70;100.00;101664.06;4733866;30;20028;-76
2022/07/23 04:00:41;;;;;;;9.70;6.55;;;;;;;14.71;100.00;101660.25;4730572;30;20035;-77
2022/07/23 04:03:06;;;;;;;8.18;6.65;;;;;;;14.79;100.00;101661.81;4717006;30;20033;-76
2022/07/23 04:05:32;;;;;;;9.18;6.53;;;;;;;14.69;100.00;101665.13;4732799;30;20032;-76
2022/07/23 04:07:57;;;;;;;8.35;7.00;;;;;;;14.68;100.00;101666.16;4734061;30;20489;-77
2022/07/23 04:10:22;;;;;;;11.70;7.25;;;;;;;14.64;100.00;101662.25;4733977;30;20032;-76
2022/07/23 04:12:48;;;;;;;9.35;7.50;;;;;;;14.60;100.00;101668.34;4718397;30;20469;-77
2022/07/23 04:15:13;;;;;;;11.43;8.05;;;;;;;14.56;100.00;101670.72;4736932;30;20041;-75
2022/07/23 04:17:39;;;;;;;12.80;8.38;;;;;;;14.60;100.00;101669.22;4737504;30;20096;-76
2022/07/23 04:20:05;;;;;;;11.60;7.47;;;;;;;14.49;100.00;101673.56;4736843;30;20041;-76
2022/07/23 04:22:30;;;;;;;12.32;7.57;;;;;;;14.45;100.00;101677.81;4736675;30;20405;-77
2022/07/23 04:24:56;;;;;;;12.95;8.15;;;;;;;14.42;100.00;101685.56;4717113;30;20037;-78
2022/07/23 04:28:07;;;;;;;11.80;8.98;;;;;;;14.41;100.00;101682.03;4727874;30;20445;-78
2022/07/23 04:30:35;;;;;;;10.07;8.20;;;;;;;14.43;100.00;101679.09;4733761;30;20025;-78
2022/07/23 04:33:01;;;;;;;13.85;8.70;;;;;;;14.50;100.00;101693.44;4720983;30;20033;-78
2022/07/23 04:35:27;;;;;;;14.07;8.68;;;;;;;14.58;100.00;101690.38;4721138;30;20071;-77
2022/07/23 04:38:23;;;;;;;13.80;8.90;;;;;;;14.65;100.00;101693.88;4721271;30;20039;-79
2022/07/23 04:40:52;;;;;;;13.40;9.18;;;;;;;14.59;100.00;101689.31;4720409;30;20063;-79
2022/07/23 04:43:17;;;;;;;12.18;8.93;;;;;;;14.62;100.00;101697.06;4720201;30;20048;-76
2022/07/23 04:45:44;;;;;;;15.88;8.85;;;;;;;14.55;100.00;101701.75;4706622;30;20041;-80
2022/07/23 04:48:16;;;;;;;10.80;8.73;;;;;;;14.58;100.00;101703.19;4703339;30;20044;-79
2022/07/23 04:50:47;;;;;;;15.70;9.13;;;;;;;14.55;100.00;101699.00;4732329;30;20037;-79
2022/07/23 04:53:18;;;;;;;14.52;9.02;;;;;;;14.60;100.00;101707.34;4731760;30;20036;-79
2022/07/23 04:55:51;;;;;;;13.60;8.87;;;;;;;14.48;100.00;101704.56;4703389;30;20033;-79
2022/07/23 04:58:25;;;;;;;15.50;8.75;;;;;;;14.42;100.00;101704.63;4733808;30;20025;-79
2022/07/23 05:01:00;;;;;;;16.70;9.18;;;;;;;14.39;100.00;101710.53;4714243;30;20031;-80
2022/07/23 05:03:34;;;;;;;11.52;8.88;;;;;;;14.36;100.00;101712.69;4720896;30;20386;-79
2022/07/23 05:06:04;;;;;;;16.85;9.75;;;;;;;14.38;100.00;101700.72;4718935;30;20047;-79
2022/07/23 05:08:35;;;;;;;14.50;9.15;;;;;;;14.41;100.00;101703.81;4720059;30;20397;-79
2022/07/23 05:11:11;;;;;;;14.52;9.30;;;;;;;14.46;100.00;101700.41;4719985;30;20460;-79
2022/07/23 05:13:51;;;;;;;17.50;9.07;;;;;;;14.44;100.00;101697.91;4719314;30;20533;-79
2022/07/23 05:16:24;;;;;;;14.55;9.07;;;;;;;14.51;100.00;101697.84;4720198;30;20385;-79
2022/07/23 05:18:57;;;;;;;13.48;8.80;;;;;;;14.50;100.00;101701.63;4720328;30;20507;-79
2022/07/23 05:21:30;;;;;;;16.48;9.32;;;;;;;14.57;100.00;101702.34;4719755;30;20048;-79
2022/07/23 05:24:20;;;;;;;13.85;9.40;;;;;;;14.69;100.00;101705.16;4719599;30;20052;-79
2022/07/23 05:26:56;;;;;;;14.63;9.15;;;;;;;14.78;100.00;101706.50;4720332;30;20525;-79
2022/07/23 05:29:25;;;;;;;11.63;8.80;;;;;;;14.85;100.00;101709.94;4716962;30;20112;-79
2022/07/23 05:31:51;;;;;;;16.88;9.73;;;;;;;14.86;100.00;101710.78;4702812;30;20036;-79
2022/07/23 05:34:26;;;;;;;15.40;9.65;;;;;;;14.87;100.00;101716.00;4702625;30;20060;-79
2022/07/23 05:36:53;;;;;;;11.90;9.27;;;;;;;14.96;100.00;101715.66;4702771;30;20025;-79
2022/07/23 05:39:22;;;;;;;11.18;9.40;;;;;;;14.95;100.00;101719.47;4702427;30;20401;-79
2022/07/23 05:41:50;;;;;;;11.27;9.40;;;;;;;14.95;100.00;101714.81;4716735;30;20029;-79
2022/07/23 05:44:15;;;;;;;11.55;9.90;;;;;;;15.07;100.00;101725.75;4715495;30;20036;-79
2022/07/23 05:46:41;;;;;;;10.63;9.00;;;;;;;15.18;100.00;101724.94;4719762;30;20032;-81
2022/07/23 05:49:06;;;;;;;15.38;9.48;;;;;;;15.22;100.00;101720.69;4719792;30;20483;-79
2022/07/23 05:51:32;;;;;;;10.75;8.95;;;;;;;15.27;100.00;101739.06;4719926;30;20029;-79
2022/07/23 05:53:57;;;;;;;13.15;9.30;;;;;;;15.38;100.00;101734.69;4735289;30;20032;-79
2022/07/23 05:56:22;;;;;;;13.68;9.15;;;;;;;15.44;100.00;101739.19;4719586;30;20480;-79
2022/07/23 05:58:48;;;;;;;12.75;8.65;;;;;;;15.45;100.00;101735.41;4716292;30;20029;-79
2022/07/23 06:01:13;;;;;;;11.07;8.55;;;;;;;15.56;100.00;101741.94;4703307;30;20076;-79
2022/07/23 06:03:39;;;;;;;8.93;8.02;;;;;;;15.66;100.00;101750.38;4719333;30;20124;-79
2022/07/23 06:06:05;;;;;;;9.50;7.80;;;;;;;15.74;100.00;101744.53;4719336;30;20033;-79
2022/07/23 06:08:32;;;;;;;11.77;8.10;;;;;;;15.86;100.00;101746.47;4719431;30;20565;-79
2022/07/23 06:10:57;;;;;;;11.32;8.07;;;;;;;15.93;100.00;101758.13;4719116;30;20123;-79
2022/07/23 06:13:23;;;;;;;12.32;8.45;;;;;;;15.92;100.00;101750.97;4718124;30;20076;-76
2022/07/23 06:15:48;;;;;;;10.15;7.60;;;;;;;15.98;100.00;101757.41;4735822;30;20123;-73
2022/07/23 06:18:13;;;;;;;9.27;7.68;;;;;;;16.09;100.00;101759.25;4719204;30;20028;-75
2022/07/23 06:20:39;;;;;;;10.13;7.88;;;;;;;16.09;100.00;101748.34;4735433;30;20036;-75
2022/07/23 06:23:04;;;;;;;12.10;7.38;;;;;;;16.12;100.00;101750.59;4734938;30;20055;-75
2022/07/23 06:25:30;;;;;;;8.65;6.65;;;;;;;16.19;100.00;101755.94;4734868;30;20047;-74
2022/07/23 06:27:55;;;;;;;8.75;6.88;;;;;;;16.28;100.00;101754.50;4735360;30;20452;-74
2022/07/23 06:30:20;;;;;;;10.57;6.75;;;;;;;16.39;100.00;101744.59;4734909;30;20109;-76
2022/07/23 06:32:47;;;;;;;8.35;6.15;;;;;;;16.43;100.00;101749.34;4719283;30;20434;-73
2022/07/23 06:35:12;;;;;;;8.27;6.43;;;;;;;16.54;100.00;101758.56;4734439;30;20458;-73
2022/07/23 06:37:37;;;;;;;7.70;6.13;;;;;;;16.59;100.00;101758.69;4717874;30;20068;-74
2022/07/23 06:40:03;;;;;;;10.18;5.60;;;;;;;16.63;100.00;101759.00;4734671;30;20128;-74
2022/07/23 06:42:28;;;;;;;9.05;6.20;;;;;;;16.67;100.00;101757.47;4734697;30;20032;-74
2022/07/23 06:44:54;;;;;;;9.38;5.82;;;;;;;16.72;100.00;101760.28;4734817;30;20091;-74
2022/07/23 06:47:19;;;;;;;6.90;5.05;;;;;;;16.74;96.51;101763.63;4733981;30;20372;-73
2022/07/23 06:49:44;;;;;;;11.60;5.70;;;;;;;16.77;96.72;101762.28;4734743;30;20033;-74
2022/07/23 06:52:13;;;;;;;8.50;5.07;;;;;;;16.78;93.03;101762.03;4734273;30;20090;-73
2022/07/23 06:54:41;;;;;;;6.28;5.15;;;;;;;16.85;97.92;101767.38;4747858;30;20032;-72
2022/07/23 06:57:26;;;;;;;7.70;5.20;;;;;;;16.90;96.98;101772.94;4746086;30;20032;-75
2022/07/23 06:59:57;;;;;;;8.98;5.63;;;;;;;16.92;93.82;101759.03;4747445;30;20392;-74
2022/07/23 07:02:22;;;;;;;7.97;5.00;;;;;;;16.96;95.34;101761.03;4733913;30;20947;-73
2022/07/23 07:04:47;;;;;;;7.60;4.75;;;;;;;17.02;93.40;101763.88;4734302;30;20036;-74
2022/07/23 07:07:12;;;;;;;9.68;4.95;;;;;;;17.05;95.31;101764.19;4732966;30;20108;-74
2022/07/23 07:09:38;;;;;;;7.95;5.18;;;;;;;17.06;93.84;101759.56;4734245;30;20474;-74
2022/07/23 07:12:04;;;;;;;5.95;5.00;;;;;;;17.09;93.78;101759.91;4718490;30;20024;-76
2022/07/23 07:14:29;;;;;;;7.60;5.28;;;;;;;17.10;92.80;101761.53;4718614;30;20028;-75
2022/07/23 07:16:54;;;;;;;8.77;5.00;;;;;;;17.11;90.17;101756.91;4733374;30;20033;-74
2022/07/23 07:19:19;;;;;;;8.20;5.60;;;;;;;17.20;93.08;101757.34;4734461;30;20069;-76
2022/07/23 07:21:45;;;;;;;7.88;4.97;;;;;;;17.27;93.46;101764.31;4734293;30;20057;-74
2022/07/23 07:24:10;;;;;;;5.68;4.45;;;;;;;17.31;91.13;101764.63;4734148;30;20044;-75
2022/07/23 07:26:35;;;;;;;8.23;5.00;;;;;;;17.38;91.34;101773.53;4715137;30;20029;-75
2022/07/23 07:29:01;;;;;;;9.90;4.68;;;;;;;17.44;87.19;101774.44;4716912;30;20701;-75
2022/07/23 07:31:26;;;;;;;5.60;4.30;;;;;;;17.42;86.65;101774.69;4716700;30;20040;-75
2022/07/23 07:33:51;;;;;;;7.72;4.57;;;;;;;17.45;88.06;101778.81;4704086;30;20098;-74
2022/07/23 07:36:17;;;;;;;5.97;3.95;;;;;;;17.46;84.73;101781.31;4714866;30;20033;-76
2022/07/23 07:38:42;;;;;;;8.70;4.90;;;;;;;17.52;84.30;101784.97;4701069;30;20447;-77
2022/07/23 07:41:09;;;;;;;7.03;4.32;;;;;;;17.54;84.64;101783.66;4730238;30;20427;-73
2022/07/23 07:43:35;;;;;;;10.05;4.57;;;;;;;17.61;86.52;101782.66;4734158;30;20036;-71
2022/07/23 07:46:00;;;;;;;6.50;4.32;;;;;;;17.64;84.61;101776.66;4734200;30;20087;-72
2022/07/23 07:48:26;;;;;;;8.80;5.07;;;;;;;17.71;83.96;101780.06;4736738;30;20107;-72
2022/07/23 07:50:51;;;;;;;7.20;4.85;;;;;;;17.78;83.75;101775.22;4736931;30;20035;-72
2022/07/23 07:53:16;;;;;;;7.00;4.70;;;;;;;17.77;79.97;101770.00;4737380;30;20040;-71
2022/07/23 07:55:42;;;;;;;5.88;4.68;;;;;;;17.76;80.08;101777.41;4737605;30;20124;-72
2022/07/23 07:58:07;;;;;;;7.75;4.75;;;;;;;17.80;80.36;101773.09;4737361;30;20448;-72
2022/07/23 08:00:32;;;;;;;7.47;4.65;;;;;;;17.87;82.36;101781.09;4733920;30;20038;-73
2022/07/23 08:02:58;;;;;;;6.95;4.40;;;;;;;17.93;81.27;101782.88;4736009;30;20115;-72
2022/07/23 08:05:26;;;;;;;7.05;4.75;;;;;;;17.95;80.15;101788.09;4737468;30;20037;-72
2022/07/23 08:07:51;;;;;;;6.53;4.25;;;;;;;17.99;81.09;101783.78;4737322;30;20044;-74
2022/07/23 08:10:18;;;;;;;7.13;4.47;;;;;;;18.05;80.52;101789.06;4717427;30;20114;-73
2022/07/23 08:12:49;;;;;;;6.00;3.63;;;;;;;18.20;80.26;101776.66;4719592;30;20071;-74
2022/07/23 08:15:16;;;;;;;10.60;4.70;;;;;;;18.18;77.11;101793.38;4719606;30;20466;-73
2022/07/23 08:17:43;;;;;;;5.63;3.75;;;;;;;18.27;78.78;101784.69;4720056;30;20041;-74
2022/07/23 08:20:10;;;;;;;5.70;4.70;;;;;;;18.27;77.39;101784.69;4723725;30;20032;-74
2022/07/23 08:23:05;;;;;;;6.68;3.75;;;;;;;18.37;79.49;101784.81;4736645;30;20106;-73
2022/07/23 08:25:36;;;;;;;6.22;3.88;;;;;;;18.48;77.52;101796.75;4735846;30;20048;-74
2022/07/23 08:28:03;;;;;;;5.18;3.88;;;;;;;18.49;75.15;101792.94;4721335;30;20381;-75
2022/07/23 08:30:29;;;;;;;6.53;4.10;;;;;;;18.51;75.43;101797.06;4734791;30;20044;-73
2022/07/23 08:32:57;;;;;;;7.50;4.30;;;;;;;18.63;75.57;101802.44;4734736;30;20094;-74
2022/07/23 08:35:31;;;;;;;20.83;4.60;;;;;;;18.67;75.13;101806.31;4736456;30;20033;-73
2022/07/23 08:37:58;;;;;;;7.72;4.60;;;;;;;18.69;73.29;101804.16;4736827;30;20107;-74
2022/07/23 08:40:26;;;;;;;7.97;4.38;;;;;;;18.78;73.98;101807.25;4736577;30;20032;-73
2022/07/23 08:42:52;;;;;;;5.93;4.70;;;;;;;18.76;72.21;101814.91;4737554;30;20039;-73
2022/07/23 08:45:20;;;;;;;6.03;4.32;;;;;;;18.76;72.39;101814.91;4736580;30;20032;-74
2022/07/23 08:47:48;;;;;;;9.20;4.03;;;;;;;18.74;73.33;101817.91;4734126;30;20032;-74
2022/07/23 08:50:14;;;;;;;6.13;4.07;;;;;;;18.78;73.67;101813.56;4736221;30;20082;-72
2022/07/23 08:52:40;;;;;;;8.70;4.60;;;;;;;18.74;72.81;101817.09;4717437;30;20116;-72
2022/07/23 08:55:06;;;;;;;8.20;4.90;;;;;;;18.65;74.26;101808.47;4722567;30;20035;-73
2022/07/23 08:57:32;;;;;;;8.27;4.32;;;;;;;18.71;74.64;101814.84;4736250;30;20086;-74
2022/07/23 08:59:57;;;;;;;9.00;4.65;;;;;;;18.79;74.98;101814.38;4735639;30;20115;-73
2022/07/23 09:02:23;;;;;;;5.95;4.30;;;;;;;18.83;74.50;101823.78;4732531;30;20052;-74
2022/07/23 09:04:48;;;;;;;7.07;4.53;;;;;;;18.88;74.99;101812.06;4736228;30;20033;-73
2022/07/23 09:07:14;;;;;;;7.78;4.72;;;;;;;18.93;74.52;101804.72;4719008;30;20041;-73
2022/07/23 09:09:39;;;;;;;8.90;4.18;;;;;;;18.97;75.01;101810.50;4733761;30;20041;-75
2022/07/23 09:12:09;;;;;;;8.63;4.07;;;;;;;19.13;73.69;101806.00;4736207;30;20058;-73
2022/07/23 09:14:40;;;;;;;7.35;4.70;;;;;;;19.11;72.77;101805.44;4736082;30;20165;-74
2022/07/23 09:17:12;;;;;;;6.00;4.32;;;;;;;19.15;73.35;101805.75;4736334;30;20370;-75
2022/07/23 09:19:38;;;;;;;8.32;3.70;;;;;;;19.28;72.54;101794.38;4736039;30;20028;-75
2022/07/23 09:22:36;;;;;;;5.20;4.20;;;;;;;19.37;73.36;101791.94;4736008;30;20379;-75
2022/07/23 09:25:11;;;;;;;7.85;4.53;;;;;;;19.31;71.13;101785.59;4698210;30;20053;-75
2022/07/23 09:28:02;;;;;;;13.10;4.55;;;;;;;19.43;72.54;101785.41;4702955;30;20379;-75
2022/07/23 09:30:30;;;;;;;6.50;4.20;;;;;;;19.48;72.62;101788.22;4718437;30;20040;-75
2022/07/23 09:33:12;;;;;;;6.15;4.57;;;;;;;19.54;72.09;101798.13;4719334;30;20040;-75
2022/07/23 09:35:43;;;;;;;;;;;;;;;19.60;73.38;101797.09;4735236;30;20358;-75
2022/07/23 09:38:08;;;;;;;7.45;4.57;;;;;;;19.55;71.00;101793.47;4734814;30;19910;-75
2022/07/23 09:40:34;;;;;;;8.07;4.40;;;;;;;19.59;70.92;101795.41;4736621;30;20650;-75
2022/07/23 09:42:59;;;;;;;6.03;4.20;;;;;;;19.66;70.55;101807.00;4709298;30;20037;-77
2022/07/23 09:45:24;;;;;;;5.25;3.72;;;;;;;19.65;71.39;101808.09;4725426;30;20045;-79
2022/07/23 09:47:50;;;;;;;5.93;4.25;;;;;;;19.65;69.76;101810.03;4749159;30;20055;-76
2022/07/23 09:50:20;;;;;;;6.78;4.10;;;;;;;19.73;71.16;101805.97;4734794;30;20114;-76
2022/07/23 09:52:48;;;;;;;7.40;4.18;;;;;;;19.81;70.28;101808.25;4735331;30;20384;-74
2022/07/23 09:55:13;;;;;;;5.90;4.07;;;;;;;19.80;69.61;101804.66;4715810;30;20130;-75
2022/07/23 09:57:41;;;;;;;5.13;3.72;;;;;;;19.88;69.66;101806.09;4735037;30;20032;-75
2022/07/23 10:00:11;;;;;;;6.43;3.38;;;;;;;19.98;69.50;101816.34;4735408;30;20032;-75
2022/07/23 10:02:38;;;;;;;4.18;3.45;;;;;;;19.96;65.99;101810.28;4716183;30;20049;-75
2022/07/23 10:05:04;;;;;;;4.32;3.28;;;;;;;20.08;68.16;101815.56;4733378;30;20041;-74
2022/07/23 10:07:36;;;;;;;4.00;3.13;;;;;;;20.14;67.31;101809.00;4735402;30;20464;-75
2022/07/23 10:10:03;;;;;;;4.93;3.08;;;;;;;20.19;66.56;101814.53;4734882;30;20029;-74
2022/07/23 10:14:57;;;;;;;5.88;3.42;;;;;;;20.29;67.81;101802.75;4734695;30;20136;-75
2022/07/23 10:17:22;;;;;;;4.20;3.35;;;;;;;20.39;67.89;101810.25;4734669;30;20043;-75
2022/07/23 10:19:47;;;;;;;4.70;3.40;;;;;;;20.44;66.87;101807.50;4734992;30;20408;-74
2022/07/23 10:22:18;;;;;;;5.07;3.22;;;;;;;20.56;67.95;101801.78;4734542;30;20398;-75
2022/07/23 10:24:59;;;;;;;3.80;3.17;;;;;;;20.57;66.60;101809.75;4734004;30;20111;-74
2022/07/23 10:27:43;;;;;;;4.80;3.72;;;;;;;20.57;66.84;101808.94;4734826;30;20058;-74
2022/07/23 10:30:46;;;;;;;8.07;3.20;;;;;;;20.58;66.83;101811.41;4734991;30;20025;-74
2022/07/23 10:33:36;;;;;;;6.32;3.47;;;;;;;20.57;66.01;101803.44;4719300;30;20385;-73
2022/07/23 10:36:11;;;;;;;3.33;2.95;;;;;;;20.60;65.32;101811.16;4733870;30;20077;-73
2022/07/23 10:38:52;;;;;;;5.40;3.03;;;;;;;20.68;65.58;101811.50;4716615;30;20167;-70
2022/07/23 10:41:34;;;;;;;5.10;2.78;;;;;;;20.76;65.72;101806.53;4718696;30;20025;-71
2022/07/23 10:44:11;;;;;;;7.15;3.65;;;;;;;20.87;65.45;101808.25;4718698;30;20036;-71
2022/07/23 10:49:34;;;;;;;4.72;3.10;;;;;;;20.96;63.82;101805.78;4735737;30;20541;-74
2022/07/23 10:52:14;;;;;;;4.97;2.80;;;;;;;20.96;64.61;101798.34;4718864;30;20028;-75
2022/07/23 10:54:45;;;;;;;8.33;2.60;;;;;;;21.06;64.72;101797.53;4718878;30;20037;-74
2022/07/23 10:57:12;;;;;;;5.70;2.35;;;;;;;21.17;63.36;101801.16;4734664;30;20040;-74
2022/07/23 11:02:31;;;;;;;3.75;2.70;;;;;;;21.19;63.91;101798.94;4731201;30;20049;-75
2022/07/23 11:05:01;;;;;;;7.18;2.88;;;;;;;21.30;63.59;101808.03;4734301;30;20068;-75
2022/07/23 11:07:27;;;;;;;4.57;2.55;;;;;;;21.50;63.81;101810.81;4718307;30;20439;-75
2022/07/23 11:09:53;;;;;;;6.25;2.83;;;;;;;21.62;62.99;101805.03;4717409;30;20037;-74
2022/07/23 11:12:19;;;;;;;6.28;2.97;;;;;;;21.74;62.92;101804.72;4734244;30;20033;-76
2022/07/23 11:15:14;;;;;;;4.20;2.93;;;;;;;21.84;63.02;101799.22;4734209;30;20029;-75
2022/07/23 11:17:43;;;;;;;4.95;3.10;;;;;;;21.65;61.08;101803.66;4719484;30;20041;-75
2022/07/23 11:20:12;;;;;;;3.58;2.60;;;;;;;21.54;61.66;101802.81;4733365;30;20036;-73
2022/07/23 11:22:43;;;;;;;4.20;2.95;;;;;;;21.33;61.01;101804.72;4733845;30;20048;-73
2022/07/23 11:25:28;;;;;;;4.40;2.60;;;;;;;21.18;60.41;101791.75;4734614;30;20366;-73
2022/07/23 11:27:54;;;;;;;6.13;2.60;;;;;;;21.05;61.74;101788.47;4718555;30;20369;-73
2022/07/23 11:30:25;;;;;;;5.75;2.67;;;;;;;21.33;63.47;101794.56;4732875;30;20119;-73
2022/07/23 11:32:50;;;;;;;;;;;;;;;21.46;64.08;101798.66;4733284;30;20043;-74
2022/07/23 11:35:27;;;;;;;4.07;2.83;;;;;;;21.59;59.54;101798.16;4734651;30;19997;-73
2022/07/23 11:38:02;;;;;;;4.13;2.33;;;;;;;21.70;60.29;101790.69;4734342;30;20028;-73